Time;durP1;ratioP1;P1;durP2;ratioP2;P2;SDS_P1;SDS_P2;PMS_P1;PMS_P2;Temp;Humidity;BMP_temperature;BMP_pressure;BME280_temperature;BME280_humidity;BME280_pressure;Samples;Min_cycle;Max_cycle;Signal;HPM_P1;HPM_P2
2023/04/25 00:01:04;;;;;;;8.77;3.73;;;8.10;99.90;;;;;;5022170;28;20208;-49
2023/04/25 00:03:32;;;;;;;8.27;4.23;;;8.10;99.90;;;;;;5021973;28;20192;-54
2023/04/25 00:06:01;;;;;;;9.37;3.97;;;8.10;99.90;;;;;;5006672;28;20215;-55
2023/04/25 00:08:29;;;;;;;10.93;4.50;;;8.10;99.90;;;;;;5006048;28;20206;-51
2023/04/25 00:10:57;;;;;;;15.43;5.07;;;8.00;99.90;;;;;;5018287;28;20230;-54
2023/04/25 00:13:25;;;;;;;7.40;3.97;;;8.00;99.90;;;;;;5014950;28;20258;-51
2023/04/25 00:15:52;;;;;;;9.93;3.50;;;8.00;99.90;;;;;;5024616;28;20227;-48
2023/04/25 00:18:20;;;;;;;11.27;3.47;;;7.90;99.90;;;;;;5022963;28;20216;-55
2023/04/25 00:20:46;;;;;;;11.33;3.53;;;7.90;99.90;;;;;;5024306;28;20204;-54
2023/04/25 00:23:17;;;;;;;9.53;2.87;;;7.80;99.90;;;;;;5004845;28;20212;-51
2023/04/25 00:25:44;;;;;;;9.93;3.07;;;7.80;99.90;;;;;;5003449;28;20219;-52
2023/04/25 00:28:13;;;;;;;13.07;2.53;;;7.80;99.90;;;;;;5019512;28;20200;-52
2023/04/25 00:30:40;;;;;;;13.47;3.30;;;7.80;99.90;;;;;;5022905;28;20208;-51
2023/04/25 00:33:08;;;;;;;16.93;4.13;;;7.80;99.90;;;;;;5023182;28;20246;-50
2023/04/25 00:35:35;;;;;;;10.97;3.10;;;7.80;99.90;;;;;;5003944;28;21119;-51
2023/04/25 00:38:03;;;;;;;18.00;3.47;;;7.80;99.90;;;;;;4998850;28;20196;-51
2023/04/25 00:40:30;;;;;;;16.67;3.17;;;7.80;99.90;;;;;;4982184;28;21711;-51
2023/04/25 00:42:57;;;;;;;11.63;3.57;;;7.80;99.90;;;;;;5004717;28;20192;-51
2023/04/25 00:45:29;;;;;;;17.23;3.33;;;7.90;99.90;;;;;;5022353;28;20208;-51
2023/04/25 00:47:56;;;;;;;14.13;2.90;;;7.80;99.90;;;;;;5019493;28;20196;-48
2023/04/25 00:50:24;;;;;;;10.93;3.30;;;7.80;99.90;;;;;;5022276;28;20561;-51
2023/04/25 00:52:52;;;;;;;14.47;3.10;;;7.80;99.90;;;;;;4982138;28;20208;-53
2023/04/25 00:55:20;;;;;;;23.63;3.10;;;7.80;99.90;;;;;;5010101;28;20254;-50
2023/04/25 00:57:48;;;;;;;15.50;3.37;;;7.80;99.90;;;;;;4998136;28;20315;-51
2023/04/25 01:00:16;;;;;;;14.60;3.00;;;7.80;99.90;;;;;;5023854;28;20664;-51
2023/04/25 01:02:45;;;;;;;12.97;2.63;;;7.70;99.90;;;;;;5022984;28;20204;-51
2023/04/25 01:05:13;;;;;;;8.60;3.03;;;7.70;99.90;;;;;;5011618;28;20219;-51
2023/04/25 01:07:40;;;;;;;14.10;3.60;;;7.70;99.90;;;;;;4988921;28;20579;-51
2023/04/25 01:10:08;;;;;;;12.63;4.07;;;7.70;99.90;;;;;;5013424;28;20203;-54
2023/04/25 01:12:36;;;;;;;13.83;3.30;;;7.70;99.90;;;;;;5008152;28;20846;-52
2023/04/25 01:15:04;;;;;;;15.60;3.57;;;7.70;99.90;;;;;;4999334;28;20624;-52
2023/04/25 01:17:31;;;;;;;8.27;2.97;;;7.60;99.90;;;;;;5021439;28;20207;-51
2023/04/25 01:19:59;;;;;;;13.43;3.50;;;7.60;99.90;;;;;;5020346;28;20200;-48
2023/04/25 01:22:28;;;;;;;11.70;3.83;;;7.60;99.90;;;;;;4995019;28;20231;-51
2023/04/25 01:24:55;;;;;;;17.73;3.57;;;7.60;99.90;;;;;;5021670;28;20799;-51
2023/04/25 01:27:23;;;;;;;12.23;3.00;;;7.60;99.90;;;;;;4992044;28;20204;-50
2023/04/25 01:29:51;;;;;;;17.17;3.57;;;7.60;99.90;;;;;;5005112;28;20203;-54
2023/04/25 01:32:18;;;;;;;16.17;3.43;;;7.50;99.90;;;;;;5002233;28;20208;-50
2023/04/25 01:34:46;;;;;;;18.23;3.43;;;7.50;99.90;;;;;;4999873;28;20266;-54
2023/04/25 01:37:36;;;;;;;20.73;3.07;;;7.50;99.90;;;;;;5018770;28;20288;-51
2023/04/25 01:40:06;;;;;;;14.07;3.37;;;7.50;99.90;;;;;;4983952;28;20240;-53
2023/04/25 01:42:33;;;;;;;21.17;3.73;;;7.50;99.90;;;;;;4992940;28;20228;-52
2023/04/25 01:45:01;;;;;;;16.40;3.27;;;7.50;99.90;;;;;;5001186;28;20222;-54
2023/04/25 01:47:28;;;;;;;15.93;3.30;;;7.40;99.90;;;;;;5001370;28;20192;-51
2023/04/25 01:49:55;;;;;;;17.10;3.73;;;7.40;99.90;;;;;;5015366;28;20192;-52
2023/04/25 01:52:22;;;;;;;19.53;3.20;;;7.40;99.90;;;;;;5017378;28;20196;-48
2023/04/25 01:54:52;;;;;;;11.10;3.57;;;7.40;99.90;;;;;;4985650;28;20381;-49
2023/04/25 01:57:19;;;;;;;13.20;3.23;;;7.30;99.90;;;;;;4991480;28;20216;-50
2023/04/25 01:59:47;;;;;;;15.80;3.23;;;7.30;99.90;;;;;;5000270;28;20199;-49
2023/04/25 02:02:21;;;;;;;12.00;4.10;;;7.30;99.90;;;;;;5009090;28;20983;-51
2023/04/25 02:04:48;;;;;;;17.90;3.30;;;7.30;99.90;;;;;;4999302;28;20216;-53
2023/04/25 02:07:15;;;;;;;10.90;3.50;;;7.30;99.90;;;;;;4996814;28;20179;-48
2023/04/25 02:09:53;;;;;;;12.07;2.73;;;7.30;99.90;;;;;;4983185;28;20212;-53
2023/04/25 02:12:23;;;;;;;20.90;3.13;;;7.30;99.90;;;;;;5002697;28;20767;-49
2023/04/25 02:15:15;;;;;;;14.97;2.87;;;7.20;99.90;;;;;;4989267;28;20808;-51
2023/04/25 02:17:49;;;;;;;13.23;3.17;;;7.20;99.90;;;;;;4997445;28;20204;-52
2023/04/25 02:20:17;;;;;;;18.30;3.10;;;7.20;99.90;;;;;;5018769;28;20192;-53
2023/04/25 02:22:44;;;;;;;17.70;3.27;;;7.20;99.90;;;;;;5022301;28;20216;-53
2023/04/25 02:25:13;;;;;;;10.33;3.30;;;7.20;99.90;;;;;;4981390;28;20315;-54
2023/04/25 02:27:39;;;;;;;12.73;3.30;;;7.20;99.90;;;;;;5004786;28;20200;-50
2023/04/25 02:30:09;;;;;;;14.07;3.63;;;7.10;99.90;;;;;;4980218;28;20208;-51
2023/04/25 02:32:35;;;;;;;14.50;3.73;;;7.10;99.90;;;;;;4997165;28;20211;-49
2023/04/25 02:35:03;;;;;;;15.47;3.53;;;7.10;99.90;;;;;;5021295;28;20215;-53
2023/04/25 02:37:31;;;;;;;15.53;3.30;;;7.10;99.90;;;;;;5021767;28;20180;-53
2023/04/25 02:39:58;;;;;;;13.90;3.40;;;7.10;99.90;;;;;;4994009;28;20221;-52
2023/04/25 02:42:26;;;;;;;15.37;3.10;;;7.00;99.90;;;;;;5000928;28;20235;-55
2023/04/25 02:44:54;;;;;;;18.50;3.57;;;7.00;99.90;;;;;;5000370;28;20549;-54
2023/04/25 02:47:21;;;;;;;10.17;2.60;;;7.00;99.90;;;;;;4999063;28;20199;-53
2023/04/25 02:49:50;;;;;;;10.60;3.47;;;7.00;99.90;;;;;;5022901;28;20704;-54
2023/04/25 02:52:17;;;;;;;24.67;4.03;;;7.00;99.90;;;;;;5001436;28;20184;-54
2023/04/25 02:54:49;;;;;;;11.43;3.20;;;7.00;99.90;;;;;;5005814;28;20227;-51
2023/04/25 02:57:16;;;;;;;8.87;3.33;;;7.00;99.90;;;;;;4982222;28;20215;-52
2023/04/25 02:59:44;;;;;;;10.87;3.13;;;6.90;99.90;;;;;;5001445;28;20663;-54
2023/04/25 03:02:11;;;;;;;13.63;3.10;;;6.90;99.90;;;;;;5014188;28;20218;-50
2023/04/25 03:04:38;;;;;;;14.03;3.13;;;6.90;99.90;;;;;;5009315;28;20206;-53
2023/04/25 03:07:05;;;;;;;16.77;3.20;;;6.80;99.90;;;;;;5005858;28;20202;-51
2023/04/25 03:09:32;;;;;;;9.13;2.63;;;6.80;99.90;;;;;;5025466;28;20763;-52
2023/04/25 03:11:59;;;;;;;11.47;2.83;;;6.80;99.90;;;;;;4987787;28;20792;-50
2023/04/25 03:14:25;;;;;;;10.13;3.03;;;6.80;99.90;;;;;;5019818;28;20192;-53
2023/04/25 03:16:54;;;;;;;10.27;2.90;;;6.70;99.90;;;;;;4996369;28;20208;-54
2023/04/25 03:19:21;;;;;;;11.87;2.93;;;6.70;99.90;;;;;;5004918;28;20210;-55
2023/04/25 03:21:48;;;;;;;18.47;3.33;;;6.70;99.90;;;;;;5026153;28;20246;-48
2023/04/25 03:24:15;;;;;;;13.50;3.00;;;6.60;99.90;;;;;;5000819;28;20283;-51
2023/04/25 03:26:43;;;;;;;10.77;2.40;;;6.60;99.90;;;;;;4991452;28;20231;-50
2023/04/25 03:29:09;;;;;;;17.67;3.57;;;6.50;99.90;;;;;;5003042;28;20195;-52
2023/04/25 03:31:38;;;;;;;10.77;2.67;;;6.50;99.90;;;;;;5007675;28;20196;-50
2023/04/25 03:34:06;;;;;;;11.37;2.73;;;6.40;99.90;;;;;;4995205;28;20214;-53
2023/04/25 03:36:33;;;;;;;15.00;3.03;;;6.40;99.90;;;;;;5007426;28;20234;-55
2023/04/25 03:39:00;;;;;;;9.57;2.60;;;6.30;99.90;;;;;;4999186;28;20734;-49
2023/04/25 03:41:29;;;;;;;14.30;2.73;;;6.30;99.90;;;;;;4980390;28;20214;-52
2023/04/25 03:44:01;;;;;;;14.60;2.63;;;6.30;99.90;;;;;;5006548;28;20191;-53
2023/04/25 03:46:28;;;;;;;14.27;2.77;;;6.20;99.90;;;;;;5006566;28;20437;-50
2023/04/25 03:48:56;;;;;;;8.60;2.60;;;6.20;99.90;;;;;;4997130;28;20230;-53
2023/04/25 03:51:30;;;;;;;14.13;2.57;;;6.10;99.90;;;;;;5001543;28;20222;-54
2023/04/25 03:53:57;;;;;;;10.27;2.77;;;6.10;99.90;;;;;;5017223;28;20196;-50
2023/04/25 03:56:31;;;;;;;18.93;3.43;;;6.10;99.90;;;;;;5002229;28;20230;-54
2023/04/25 03:59:05;;;;;;;20.03;2.83;;;6.00;99.90;;;;;;5005046;28;20192;-52
2023/04/25 04:01:33;;;;;;;8.40;2.53;;;6.00;99.90;;;;;;5006934;28;20199;-53
2023/04/25 04:03:59;;;;;;;12.47;2.87;;;6.00;99.90;;;;;;5003021;28;20294;-51
2023/04/25 04:06:28;;;;;;;13.00;2.67;;;6.00;99.90;;;;;;4982876;28;21697;-54
2023/04/25 04:09:04;;;;;;;14.83;2.50;;;6.00;99.90;;;;;;4998374;28;20192;-51
2023/04/25 04:11:36;;;;;;;10.20;3.00;;;6.00;99.90;;;;;;4985822;28;20236;-51
2023/04/25 04:14:03;;;;;;;14.20;2.87;;;6.00;99.90;;;;;;5003327;28;20250;-51
2023/04/25 04:16:30;;;;;;;9.90;2.30;;;6.00;99.90;;;;;;5004388;28;20629;-50
2023/04/25 04:18:58;;;;;;;14.03;2.87;;;5.90;99.90;;;;;;5005529;28;20200;-51
2023/04/25 04:21:27;;;;;;;15.67;3.10;;;6.00;99.90;;;;;;4989473;28;20239;-51
2023/04/25 04:23:54;;;;;;;14.97;2.73;;;5.90;99.90;;;;;;4986244;28;20367;-49
2023/04/25 04:26:23;;;;;;;10.93;2.73;;;5.90;99.90;;;;;;5005262;28;20204;-53
2023/04/25 04:29:08;;;;;;;9.40;2.93;;;6.00;99.90;;;;;;4974197;28;20262;-54
2023/04/25 04:31:49;;;;;;;14.47;2.63;;;5.90;99.90;;;;;;5021450;28;20192;-55
2023/04/25 04:34:16;;;;;;;16.57;2.67;;;5.90;99.90;;;;;;4987138;28;20322;-55
2023/04/25 04:36:44;;;;;;;9.43;2.30;;;6.00;99.90;;;;;;5005331;28;20943;-53
2023/04/25 04:39:12;;;;;;;9.10;2.40;;;6.00;99.90;;;;;;4993114;28;20204;-50
2023/04/25 04:41:50;;;;;;;8.63;2.37;;;6.00;99.90;;;;;;4999133;28;20834;-53
2023/04/25 04:44:44;;;;;;;12.57;2.83;;;6.00;99.90;;;;;;4998799;28;20591;-54
2023/04/25 04:47:30;;;;;;;11.57;2.90;;;6.10;99.90;;;;;;5000160;28;20277;-50
2023/04/25 04:50:16;;;;;;;12.50;2.53;;;6.10;99.90;;;;;;4987794;28;20816;-53
2023/04/25 04:53:06;;;;;;;10.20;2.77;;;6.10;99.90;;;;;;4988697;28;20286;-54
2023/04/25 04:55:46;;;;;;;12.27;2.40;;;6.10;99.90;;;;;;4999207;28;20232;-51
2023/04/25 04:58:25;;;;;;;11.30;2.33;;;6.20;99.90;;;;;;5002048;28;20204;-51
2023/04/25 05:01:08;;;;;;;11.00;2.83;;;6.10;99.90;;;;;;4984398;28;20212;-50
2023/04/25 05:04:11;;;;;;;9.30;2.07;;;6.20;99.90;;;;;;4954741;28;20840;-55
2023/04/25 05:06:58;;;;;;;9.90;3.23;;;6.20;99.90;;;;;;5007198;28;20207;-50
2023/04/25 05:09:43;;;;;;;8.63;2.60;;;6.20;99.90;;;;;;5015505;28;20806;-48
2023/04/25 05:12:20;;;;;;;11.03;3.03;;;6.20;99.90;;;;;;4999414;28;20222;-56
2023/04/25 05:15:13;;;;;;;11.80;2.20;;;6.20;99.90;;;;;;4979079;28;20938;-54
2023/04/25 05:18:04;;;;;;;6.70;2.20;;;6.10;99.90;;;;;;5001219;28;20208;-52
2023/04/25 05:20:41;;;;;;;11.97;2.80;;;6.10;99.90;;;;;;5018129;28;20186;-53
2023/04/25 05:23:20;;;;;;;10.60;2.10;;;6.00;99.90;;;;;;4986537;28;20232;-54
2023/04/25 05:25:59;;;;;;;7.87;2.50;;;6.00;99.90;;;;;;5020589;28;20245;-53
2023/04/25 05:28:50;;;;;;;8.27;2.27;;;6.00;99.90;;;;;;5019976;28;20207;-55
2023/04/25 05:31:37;;;;;;;8.13;2.17;;;5.90;99.90;;;;;;4986267;28;20279;-56
2023/04/25 05:34:13;;;;;;;5.93;1.93;;;5.90;99.90;;;;;;5002222;28;20195;-53
2023/04/25 05:37:03;;;;;;;9.53;1.97;;;5.90;99.90;;;;;;5013485;28;20253;-51
2023/04/25 05:39:31;;;;;;;11.70;2.33;;;6.00;99.90;;;;;;4990105;28;20220;-51
2023/04/25 05:42:31;;;;;;;10.17;3.07;;;5.90;99.90;;;;;;4972985;28;20892;-53
2023/04/25 05:45:08;;;;;;;10.50;2.13;;;6.00;99.90;;;;;;4989723;28;20305;-58
2023/04/25 05:47:44;;;;;;;11.60;2.23;;;6.00;99.90;;;;;;5012417;28;21032;-55
2023/04/25 05:50:17;;;;;;;10.17;2.73;;;6.00;99.90;;;;;;5001101;28;20286;-59
2023/04/25 05:53:05;;;;;;;14.17;2.60;;;6.00;99.90;;;;;;4995480;28;20204;-55
2023/04/25 05:55:43;;;;;;;8.93;1.67;;;6.00;99.90;;;;;;5008379;28;20231;-52
2023/04/25 05:58:20;;;;;;;7.73;2.83;;;6.00;99.90;;;;;;4989013;28;20587;-58
2023/04/25 06:00:48;;;;;;;9.50;2.17;;;6.10;99.90;;;;;;4978529;28;20248;-54
2023/04/25 06:03:16;;;;;;;6.47;1.97;;;6.10;99.90;;;;;;5016684;28;20208;-60
2023/04/25 06:05:43;;;;;;;13.87;2.83;;;6.20;99.90;;;;;;5001912;28;20200;-57
2023/04/25 06:08:10;;;;;;;8.43;2.77;;;6.30;99.90;;;;;;4992254;28;20750;-59
2023/04/25 06:10:38;;;;;;;6.27;2.20;;;6.30;99.90;;;;;;4992384;28;20197;-59
2023/04/25 06:13:06;;;;;;;6.90;1.90;;;6.30;99.90;;;;;;4983291;28;20210;-54
2023/04/25 06:15:35;;;;;;;8.13;2.30;;;6.30;99.90;;;;;;5001314;28;20326;-47
2023/04/25 06:18:01;;;;;;;6.80;2.00;;;6.30;99.90;;;;;;4981476;28;20200;-53
2023/04/25 06:20:30;;;;;;;8.33;2.17;;;6.40;99.90;;;;;;5022267;28;20561;-55
2023/04/25 06:22:59;;;;;;;8.53;2.20;;;6.50;99.90;;;;;;4991969;28;20293;-52
2023/04/25 06:25:45;;;;;;;12.87;2.37;;;6.50;99.90;;;;;;4980688;28;20697;-59
2023/04/25 06:28:12;;;;;;;8.77;2.87;;;6.60;99.90;;;;;;4996657;28;20214;-58
2023/04/25 06:30:40;;;;;;;11.00;2.30;;;6.60;99.90;;;;;;4999211;28;20200;-58
2023/04/25 06:33:11;;;;;;;7.03;2.10;;;6.60;99.90;;;;;;4984465;28;20223;-52
2023/04/25 06:35:41;;;;;;;8.30;2.63;;;6.60;99.90;;;;;;5001960;28;20756;-59
2023/04/25 06:38:11;;;;;;;12.13;2.37;;;6.70;99.90;;;;;;4986540;28;20209;-58
2023/04/25 06:40:41;;;;;;;8.90;2.47;;;6.70;99.90;;;;;;4983986;28;20215;-59
2023/04/25 06:43:09;;;;;;;12.90;2.30;;;6.70;99.90;;;;;;5004832;28;20222;-52
2023/04/25 06:45:49;;;;;;;14.03;2.77;;;6.70;99.90;;;;;;5001506;28;20203;-56
2023/04/25 06:48:17;;;;;;;11.60;2.90;;;6.70;99.90;;;;;;4984769;28;20215;-56
2023/04/25 06:50:44;;;;;;;11.93;2.53;;;6.80;99.90;;;;;;5000332;28;20210;-55
2023/04/25 06:53:13;;;;;;;8.07;1.97;;;6.70;99.90;;;;;;4997736;28;20533;-55
2023/04/25 06:55:43;;;;;;;5.87;2.00;;;6.70;99.90;;;;;;4987694;28;20235;-53
2023/04/25 06:58:19;;;;;;;7.77;1.70;;;6.70;99.90;;;;;;5005302;28;20227;-52
2023/04/25 07:01:05;;;;;;;9.87;2.57;;;6.70;99.90;;;;;;5021909;28;20928;-50
2023/04/25 07:03:32;;;;;;;10.33;2.17;;;6.50;99.90;;;;;;4982349;28;20215;-57
2023/04/25 07:06:06;;;;;;;5.30;2.00;;;6.50;99.90;;;;;;5015728;28;20270;-58
2023/04/25 07:08:33;;;;;;;10.57;2.60;;;6.40;99.90;;;;;;4980607;28;20423;-58
2023/04/25 07:11:00;;;;;;;9.00;3.53;;;6.40;99.90;;;;;;4991351;28;20212;-53
2023/04/25 07:13:27;;;;;;;5.57;1.77;;;6.30;99.90;;;;;;4994361;28;20660;-52
2023/04/25 07:15:55;;;;;;;5.63;1.90;;;6.00;99.90;;;;;;4995181;28;20307;-53
2023/04/25 07:18:22;;;;;;;7.90;1.67;;;5.80;99.90;;;;;;4972706;28;20468;-54
2023/04/25 07:20:50;;;;;;;5.53;1.67;;;5.70;99.90;;;;;;4989733;28;20395;-53
2023/04/25 07:23:20;;;;;;;4.07;1.63;;;5.70;99.90;;;;;;4996703;28;20212;-56
2023/04/25 07:25:47;;;;;;;7.90;1.70;;;5.80;99.90;;;;;;4995438;28;20289;-52
2023/04/25 07:28:18;;;;;;;7.33;1.57;;;5.90;99.90;;;;;;4993282;28;20191;-57
2023/04/25 07:30:45;;;;;;;6.27;1.40;;;6.00;99.90;;;;;;4996288;28;20935;-53
2023/04/25 07:33:12;;;;;;;3.53;1.13;;;6.10;99.90;;;;;;5017469;28;20283;-54
2023/04/25 07:35:40;;;;;;;6.90;2.40;;;6.20;99.90;;;;;;4980652;28;20318;-51
2023/04/25 07:38:07;;;;;;;10.73;1.80;;;6.20;99.90;;;;;;5009216;28;20195;-50
2023/04/25 07:40:36;;;;;;;19.13;2.33;;;6.30;99.90;;;;;;4991114;28;20208;-54
2023/04/25 07:43:07;;;;;;;9.70;1.77;;;6.30;99.90;;;;;;4995983;28;20420;-48
2023/04/25 07:45:43;;;;;;;13.43;2.17;;;6.50;99.90;;;;;;4991065;28;20329;-50
2023/04/25 07:48:11;;;;;;;6.60;1.90;;;6.70;99.90;;;;;;5000401;28;20200;-53
2023/04/25 07:50:39;;;;;;;7.30;1.60;;;6.80;99.90;;;;;;4977463;28;20196;-51
2023/04/25 07:53:06;;;;;;;9.33;2.93;;;6.80;99.90;;;;;;5004282;28;20298;-53
2023/04/25 07:55:40;;;;;;;8.97;2.60;;;6.90;99.90;;;;;;4999579;28;20291;-53
2023/04/25 07:58:21;;;;;;;4.03;1.57;;;7.10;99.90;;;;;;4994258;28;20580;-57
2023/04/25 08:00:49;;;;;;;12.87;2.50;;;7.20;99.90;;;;;;4989567;28;21243;-52
2023/04/25 08:03:34;;;;;;;15.57;2.33;;;7.40;99.90;;;;;;5007333;28;20230;-55
2023/04/25 08:06:04;;;;;;;10.30;1.70;;;7.40;99.90;;;;;;4985612;28;20718;-53
2023/04/25 08:08:34;;;;;;;7.77;2.77;;;7.40;99.90;;;;;;4999973;28;20199;-54
2023/04/25 08:11:02;;;;;;;7.50;2.30;;;7.40;99.90;;;;;;5003262;28;20681;-53
2023/04/25 08:13:29;;;;;;;4.77;1.33;;;7.30;99.90;;;;;;4992619;28;20680;-56
2023/04/25 08:15:55;;;;;;;6.93;1.60;;;7.00;99.90;;;;;;4993464;28;20208;-55
2023/04/25 08:18:22;;;;;;;6.33;1.17;;;6.50;99.90;;;;;;4993827;28;20222;-57
2023/04/25 08:20:50;;;;;;;3.83;1.10;;;6.30;99.90;;;;;;4984339;28;20286;-57
2023/04/25 08:23:17;;;;;;;5.03;1.03;;;6.20;99.90;;;;;;5003178;28;20205;-56
2023/04/25 08:25:52;;;;;;;3.70;0.90;;;6.20;99.90;;;;;;5006010;28;20875;-57
2023/04/25 08:28:23;;;;;;;3.43;0.90;;;6.20;99.90;;;;;;4988812;28;20204;-57
2023/04/25 08:30:51;;;;;;;4.23;1.03;;;6.30;99.90;;;;;;4988126;28;20232;-57
2023/04/25 08:33:19;;;;;;;2.30;1.10;;;6.40;99.90;;;;;;4994402;28;20682;-56
2023/04/25 08:35:56;;;;;;;6.60;1.20;;;6.40;99.90;;;;;;4986941;28;20227;-56
2023/04/25 08:38:23;;;;;;;10.10;1.83;;;6.50;99.90;;;;;;5003325;28;20579;-57
2023/04/25 08:40:52;;;;;;;6.80;1.57;;;6.60;99.90;;;;;;5001753;28;20196;-56
2023/04/25 08:43:24;;;;;;;5.17;1.70;;;6.70;99.90;;;;;;5007563;28;20185;-56
2023/04/25 08:45:53;;;;;;;13.60;2.30;;;6.80;99.90;;;;;;4995868;28;20246;-56
2023/04/25 08:48:45;;;;;;;5.43;1.60;;;7.00;99.90;;;;;;4988712;28;20249;-55
2023/04/25 08:51:16;;;;;;;5.80;1.60;;;7.30;99.90;;;;;;5008418;28;20196;-57
2023/04/25 08:53:45;;;;;;;6.40;1.73;;;7.50;99.90;;;;;;5007156;28;20222;-55
2023/04/25 08:56:17;;;;;;;7.37;2.03;;;7.70;99.90;;;;;;5002627;28;20219;-56
2023/04/25 08:58:45;;;;;;;8.03;2.10;;;7.80;99.90;;;;;;5001056;28;20203;-57
2023/04/25 09:01:12;;;;;;;13.63;2.73;;;7.80;99.90;;;;;;5021137;28;20614;-54
2023/04/25 09:03:49;;;;;;;10.10;2.30;;;7.80;99.90;;;;;;4992436;28;20219;-57
2023/04/25 09:06:17;;;;;;;8.80;2.43;;;7.80;99.90;;;;;;5002581;28;20204;-58
2023/04/25 09:08:43;;;;;;;9.13;2.23;;;7.70;99.90;;;;;;4977740;28;20208;-54
2023/04/25 09:11:11;;;;;;;7.30;1.70;;;7.80;99.90;;;;;;4994000;28;20215;-56
2023/04/25 09:13:38;;;;;;;4.97;1.70;;;7.80;99.90;;;;;;4985043;28;21049;-55
2023/04/25 09:16:28;;;;;;;8.90;1.60;;;7.80;99.90;;;;;;4996888;28;21669;-57
2023/04/25 09:19:23;;;;;;;5.07;1.77;;;7.80;99.90;;;;;;5005223;28;20208;-56
2023/04/25 09:21:50;;;;;;;7.60;1.57;;;7.80;99.90;;;;;;5011909;28;20878;-54
2023/04/25 09:24:17;;;;;;;5.60;1.20;;;7.90;99.90;;;;;;4977054;28;20208;-56
2023/04/25 09:26:44;;;;;;;9.97;1.63;;;8.00;99.90;;;;;;4994929;28;20226;-56
2023/04/25 09:29:11;;;;;;;9.40;2.17;;;8.10;99.90;;;;;;5006125;28;20252;-57
2023/04/25 09:31:42;;;;;;;7.67;1.67;;;8.20;99.90;;;;;;5000704;28;20212;-57
2023/04/25 09:34:15;;;;;;;5.20;1.27;;;8.30;99.90;;;;;;4992864;28;20202;-56
2023/04/25 09:36:45;;;;;;;9.73;1.67;;;8.40;99.90;;;;;;5000477;28;20224;-56
2023/04/25 09:39:23;;;;;;;4.73;1.40;;;8.50;99.90;;;;;;4972084;28;20211;-56
2023/04/25 09:41:58;;;;;;;9.60;2.30;;;8.40;99.90;;;;;;4999247;28;20561;-57
2023/04/25 09:44:26;;;;;;;4.57;1.40;;;8.30;99.90;;;;;;4986476;28;20228;-56
2023/04/25 09:46:56;;;;;;;7.93;1.60;;;7.90;99.90;;;;;;4994815;28;20193;-57
2023/04/25 09:49:27;;;;;;;6.73;1.50;;;7.80;99.90;;;;;;4999428;28;20269;-55
2023/04/25 09:52:13;;;;;;;5.77;1.37;;;7.80;99.90;;;;;;4990130;28;20216;-56
2023/04/25 09:54:55;;;;;;;8.33;1.53;;;7.80;99.90;;;;;;4979245;28;20220;-56
2023/04/25 09:57:30;;;;;;;10.13;1.30;;;7.80;99.90;;;;;;5000521;28;20184;-53
2023/04/25 10:00:04;;;;;;;7.57;1.43;;;7.80;99.90;;;;;;5003390;28;20196;-54
2023/04/25 10:02:46;;;;;;;6.77;1.27;;;7.90;99.90;;;;;;5021909;28;20218;-57
2023/04/25 10:05:26;;;;;;;5.30;1.60;;;8.00;99.90;;;;;;4989294;28;20240;-53
2023/04/25 10:07:55;;;;;;;4.20;1.17;;;8.30;99.90;;;;;;4995431;28;20298;-57
2023/04/25 10:10:25;;;;;;;6.07;1.50;;;8.40;99.90;;;;;;4980436;28;20362;-55
2023/04/25 10:12:52;;;;;;;4.43;0.80;;;8.60;99.90;;;;;;5016913;28;20691;-57
2023/04/25 10:15:20;;;;;;;2.83;0.77;;;8.60;99.90;;;;;;5015453;28;20319;-53
2023/04/25 10:17:50;;;;;;;6.63;1.00;;;8.70;99.90;;;;;;5014792;28;20203;-53
2023/04/25 10:20:18;;;;;;;6.67;0.90;;;8.80;99.90;;;;;;5006685;28;20934;-56
2023/04/25 10:22:47;;;;;;;3.50;1.23;;;8.80;99.90;;;;;;5017932;28;20206;-56
2023/04/25 10:25:15;;;;;;;3.27;1.00;;;8.90;99.90;;;;;;4999145;28;20220;-59
2023/04/25 10:27:42;;;;;;;4.00;1.00;;;8.90;99.90;;;;;;5022953;28;20243;-51
2023/04/25 10:30:12;;;;;;;8.43;1.90;;;8.90;99.90;;;;;;5021201;28;20204;-56
2023/04/25 10:32:39;;;;;;;12.30;1.37;;;8.90;99.90;;;;;;5008744;28;20278;-55
2023/04/25 10:35:16;;;;;;;6.73;1.40;;;8.90;99.90;;;;;;4992805;28;20219;-54
2023/04/25 10:37:59;;;;;;;8.67;1.50;;;9.00;99.90;;;;;;4997361;28;20266;-57
2023/04/25 10:40:27;;;;;;;4.23;1.40;;;9.20;99.90;;;;;;5010911;28;20714;-57
2023/04/25 10:42:54;;;;;;;5.93;1.37;;;9.40;99.90;;;;;;5003243;28;20816;-53
2023/04/25 10:45:21;;;;;;;9.83;1.53;;;9.40;99.90;;;;;;5028056;28;20274;-53
2023/04/25 10:47:48;;;;;;;6.20;1.47;;;9.30;99.90;;;;;;5003956;28;20211;-57
2023/04/25 10:50:16;;;;;;;5.43;0.83;;;9.20;99.90;;;;;;5002384;28;20235;-58
2023/04/25 10:52:44;;;;;;;2.73;0.70;;;8.80;99.90;;;;;;5020789;28;20203;-57
2023/04/25 10:55:11;;;;;;;3.23;0.90;;;8.70;99.90;;;;;;5018087;28;20742;-58
2023/04/25 10:57:40;;;;;;;5.33;1.17;;;8.70;99.90;;;;;;4995442;28;20573;-54
2023/04/25 11:00:11;;;;;;;3.30;1.10;;;8.70;99.90;;;;;;5012269;28;20207;-56
2023/04/25 11:02:42;;;;;;;3.60;1.23;;;8.60;99.90;;;;;;5007402;28;20804;-53
2023/04/25 11:05:10;;;;;;;7.80;1.80;;;8.50;99.90;;;;;;5007220;28;20226;-58
2023/04/25 11:07:50;;;;;;;5.07;1.47;;;8.30;99.90;;;;;;5015752;28;20283;-56
2023/04/25 11:10:18;;;;;;;2.50;0.60;;;8.30;99.90;;;;;;5020014;28;20269;-56
2023/04/25 11:12:45;;;;;;;2.70;1.07;;;8.20;99.90;;;;;;4989997;28;20299;-58
2023/04/25 11:15:12;;;;;;;4.40;1.13;;;8.00;99.90;;;;;;5009453;28;20951;-57
2023/04/25 11:17:41;;;;;;;7.60;1.43;;;8.00;99.90;;;;;;5014544;28;20315;-54
2023/04/25 11:20:11;;;;;;;3.27;1.20;;;8.00;99.90;;;;;;5016026;28;20671;-54
2023/04/25 11:22:40;;;;;;;4.97;0.90;;;8.10;99.90;;;;;;5000902;28;20699;-56
2023/04/25 11:25:10;;;;;;;3.80;1.00;;;8.20;99.90;;;;;;5023867;28;20215;-55
2023/04/25 11:27:51;;;;;;;4.00;1.27;;;8.30;99.90;;;;;;5015659;28;20223;-55
2023/04/25 11:30:18;;;;;;;3.53;0.90;;;8.30;99.90;;;;;;4994776;28;20278;-56
2023/04/25 11:32:45;;;;;;;7.27;1.13;;;8.30;99.90;;;;;;5015705;28;20942;-53
2023/04/25 11:35:12;;;;;;;5.60;1.20;;;8.50;99.90;;;;;;5024792;28;20696;-55
2023/04/25 11:37:40;;;;;;;4.50;1.20;;;8.70;99.90;;;;;;5010480;28;20211;-57
2023/04/25 11:40:09;;;;;;;7.83;1.37;;;8.70;99.90;;;;;;5023035;28;20278;-54
2023/04/25 11:42:38;;;;;;;5.93;1.40;;;9.00;99.90;;;;;;5010168;28;21000;-56
2023/04/25 11:45:07;;;;;;;3.77;1.30;;;9.30;99.90;;;;;;4999610;28;20337;-55
2023/04/25 11:47:34;;;;;;;6.20;1.30;;;9.50;99.90;;;;;;5013259;28;20706;-54
2023/04/25 11:50:02;;;;;;;3.53;0.90;;;9.40;99.90;;;;;;5024346;28;20195;-56
2023/04/25 11:52:39;;;;;;;1.37;0.70;;;9.30;99.90;;;;;;5010605;28;20291;-55
2023/04/25 11:55:10;;;;;;;2.53;0.93;;;9.20;99.90;;;;;;5015246;28;20239;-55
2023/04/25 11:57:39;;;;;;;4.60;0.80;;;9.10;99.90;;;;;;5004941;28;20211;-53
2023/04/25 12:00:08;;;;;;;6.23;1.20;;;9.30;99.90;;;;;;4996464;28;20204;-53
2023/04/25 12:02:41;;;;;;;2.37;1.40;;;9.50;99.90;;;;;;5018296;28;20196;-53
2023/04/25 12:05:08;;;;;;;4.77;0.83;;;9.60;99.90;;;;;;5017419;28;20223;-55
2023/04/25 12:07:36;;;;;;;5.97;0.53;;;9.90;99.90;;;;;;5012450;28;20209;-53
2023/04/25 12:10:08;;;;;;;3.70;0.90;;;10.10;99.90;;;;;;5017961;28;20755;-55
2023/04/25 12:12:35;;;;;;;5.60;0.87;;;10.10;99.90;;;;;;5008025;28;20196;-54
2023/04/25 12:15:17;;;;;;;8.57;1.67;;;9.90;99.90;;;;;;5000330;28;20227;-57
2023/04/25 12:17:46;;;;;;;3.90;1.27;;;9.80;99.90;;;;;;5017548;28;20295;-55
2023/04/25 12:20:14;;;;;;;5.47;1.00;;;9.90;99.90;;;;;;5002176;28;20669;-54
2023/04/25 12:22:44;;;;;;;5.17;1.10;;;10.10;99.90;;;;;;5001903;28;20463;-55
2023/04/25 12:25:13;;;;;;;5.63;1.10;;;10.20;99.90;;;;;;5002454;28;20724;-52
2023/04/25 12:27:41;;;;;;;3.17;1.47;;;10.30;99.90;;;;;;5008564;28;20629;-57
2023/04/25 12:30:10;;;;;;;3.17;1.20;;;10.30;99.90;;;;;;4999596;28;20228;-53
2023/04/25 12:32:37;;;;;;;3.47;1.00;;;10.10;99.90;;;;;;5012794;28;20195;-54
2023/04/25 12:35:05;;;;;;;4.37;1.30;;;10.00;99.90;;;;;;5022604;28;20208;-54
2023/04/25 12:37:32;;;;;;;1.50;0.70;;;10.10;99.90;;;;;;5011874;28;20192;-56
2023/04/25 12:39:58;;;;;;;3.80;1.17;;;10.10;99.90;;;;;;5012228;28;20198;-54
2023/04/25 12:42:26;;;;;;;5.53;1.47;;;10.30;99.90;;;;;;5020345;28;20559;-51
2023/04/25 12:44:53;;;;;;;13.60;1.43;;;10.30;99.90;;;;;;4999037;28;20289;-54
2023/04/25 12:47:20;;;;;;;5.97;1.10;;;10.00;99.90;;;;;;5014726;28;20250;-56
2023/04/25 12:49:47;;;;;;;4.40;1.23;;;9.70;99.90;;;;;;5018243;28;20200;-55
2023/04/25 12:52:14;;;;;;;1.50;0.87;;;9.40;99.90;;;;;;5017677;28;20273;-54
2023/04/25 12:54:41;;;;;;;8.40;1.93;;;9.00;99.90;;;;;;5001179;28;20207;-51
2023/04/25 12:57:08;;;;;;;5.93;1.07;;;8.70;99.90;;;;;;5020068;28;20688;-51
2023/04/25 12:59:36;;;;;;;4.17;1.40;;;8.60;99.90;;;;;;5013123;28;20207;-53
2023/04/25 13:02:03;;;;;;;5.93;1.43;;;8.70;99.90;;;;;;5002015;28;20211;-51
2023/04/25 13:04:30;;;;;;;4.10;1.10;;;8.80;99.90;;;;;;5018122;28;20390;-56
2023/04/25 13:06:57;;;;;;;4.43;0.83;;;8.90;99.90;;;;;;5013324;28;20196;-54
2023/04/25 13:09:23;;;;;;;4.10;0.90;;;9.00;99.90;;;;;;5008366;28;20208;-57
2023/04/25 13:11:50;;;;;;;3.07;0.83;;;9.30;99.90;;;;;;5013029;28;20941;-49